Time;durP1;ratioP1;P1;durP2;ratioP2;P2;SDS_P1;SDS_P2;PMS_P1;PMS_P2;Temp;Humidity;BMP_temperature;BMP_pressure;BME280_temperature;BME280_humidity;BME280_pressure;Samples;Min_cycle;Max_cycle;Signal;HPM_P1;HPM_P2
2022/12/13 00:00:45;;;;;;;25.85;12.88;;;;;;;-2.97;59.09;100649.00;6175836;23;20036;-67
2022/12/13 00:03:12;;;;;;;26.45;12.95;;;;;;;-3.08;59.68;100652.16;6175765;23;20032;-67
2022/12/13 00:05:43;;;;;;;26.27;12.63;;;;;;;-2.97;59.51;100649.00;6176587;23;20033;-68
2022/12/13 00:08:09;;;;;;;22.73;11.77;;;;;;;-3.16;59.85;100656.09;6176318;23;20065;-68
2022/12/13 00:10:36;;;;;;;23.77;12.20;;;;;;;-3.18;59.80;100655.28;6151518;23;20025;-69
2022/12/13 00:13:03;;;;;;;23.70;12.90;;;;;;;-3.09;59.32;100649.59;6177596;23;20009;-69
2022/12/13 00:15:30;;;;;;;25.33;12.32;;;;;;;-3.06;59.15;100650.31;6178526;23;20032;-68
2022/12/13 00:17:56;;;;;;;27.77;12.27;;;;;;;-2.93;59.09;100652.31;6171352;23;20020;-68
2022/12/13 00:20:23;;;;;;;24.13;13.00;;;;;;;-2.88;59.44;100650.34;6176488;23;20025;-67
2022/12/13 00:22:51;;;;;;;24.73;12.52;;;;;;;-2.89;59.06;100645.97;6177414;23;20013;-68
2022/12/13 00:25:20;;;;;;;26.73;13.88;;;;;;;-3.07;59.68;100637.25;6176021;23;20021;-67
2022/12/13 00:27:46;;;;;;;28.02;13.82;;;;;;;-2.94;59.62;100632.25;6177290;23;20025;-67
2022/12/13 00:30:13;;;;;;;28.50;14.52;;;;;;;-2.99;59.73;100627.25;6178470;23;20045;-67
2022/12/13 00:32:39;;;;;;;27.90;14.30;;;;;;;-2.99;59.85;100622.00;6178162;23;20073;-67
2022/12/13 00:35:06;;;;;;;26.52;13.80;;;;;;;-2.86;60.00;100624.84;6177763;23;20025;-68
2022/12/13 00:37:32;;;;;;;27.85;14.35;;;;;;;-2.76;59.44;100622.59;6178250;23;20028;-73
2022/12/13 00:39:59;;;;;;;29.27;14.50;;;;;;;-2.92;60.23;100610.25;6178199;23;20065;-68
2022/12/13 00:42:25;;;;;;;30.40;15.25;;;;;;;-3.27;61.43;100617.25;6151227;23;20092;-68
2022/12/13 00:44:52;;;;;;;28.13;14.13;;;;;;;-3.17;60.69;100615.88;6176646;23;20077;-68
2022/12/13 00:47:19;;;;;;;30.10;14.32;;;;;;;-3.21;60.74;100623.94;6176634;23;20062;-68
2022/12/13 00:49:46;;;;;;;24.92;12.98;;;;;;;-3.31;60.89;100613.91;6176723;23;20048;-68
2022/12/13 00:52:12;;;;;;;26.05;14.05;;;;;;;-3.13;60.23;100613.94;6177728;23;20005;-67
2022/12/13 00:54:39;;;;;;;26.08;13.73;;;;;;;-3.21;60.83;100609.06;6177727;23;20005;-67
2022/12/13 00:57:05;;;;;;;30.00;13.90;;;;;;;-3.17;60.80;100615.00;6177990;23;20052;-71
2022/12/13 00:59:32;;;;;;;34.08;15.93;;;;;;;-3.02;60.92;100608.16;6178422;23;20053;-67
2022/12/13 01:01:58;;;;;;;30.80;15.70;;;;;;;-3.17;61.15;100615.00;6177051;23;20073;-68
2022/12/13 01:04:26;;;;;;;30.02;15.10;;;;;;;-3.08;61.45;100610.16;6177598;23;20024;-69
2022/12/13 01:06:53;;;;;;;32.33;15.38;;;;;;;-3.22;61.05;100614.38;6176084;23;20033;-69
2022/12/13 01:09:24;;;;;;;31.58;16.25;;;;;;;-3.21;61.02;100614.28;6178569;23;20017;-68
2022/12/13 01:11:55;;;;;;;20.63;9.43;;;;;;;-3.20;61.56;100610.78;6178245;23;20085;-68
2022/12/13 01:14:21;;;;;;;25.45;11.77;;;;;;;-2.92;60.98;100615.50;6177439;23;20077;-68
2022/12/13 01:16:47;;;;;;;32.95;15.40;;;;;;;-2.85;61.07;100614.28;6177709;23;20044;-68
2022/12/13 01:19:14;;;;;;;34.33;16.30;;;;;;;-3.20;61.79;100615.19;6177823;23;20065;-68
2022/12/13 01:21:41;;;;;;;30.92;15.98;;;;;;;-3.34;62.57;100611.44;6176934;23;20017;-67
2022/12/13 01:24:08;;;;;;;34.55;16.98;;;;;;;-3.41;62.80;100617.91;6177688;23;20025;-69
2022/12/13 01:26:34;;;;;;;37.13;16.55;;;;;;;-3.31;62.46;100608.69;6178360;23;20045;-70
2022/12/13 01:29:04;;;;;;;35.75;17.80;;;;;;;-3.30;63.11;100604.28;6178929;23;20028;-67
2022/12/13 01:31:30;;;;;;;35.40;17.27;;;;;;;-3.25;62.88;100609.28;6175647;23;20005;-68
2022/12/13 01:33:57;;;;;;;33.17;16.88;;;;;;;-3.20;62.26;100609.94;6178807;23;20021;-68
2022/12/13 01:36:24;;;;;;;35.92;17.38;;;;;;;-3.11;62.41;100606.84;6177700;23;20005;-69
2022/12/13 01:38:52;;;;;;;35.45;17.63;;;;;;;-3.25;62.52;100602.25;6174471;23;21917;-68
2022/12/13 01:41:27;;;;;;;33.78;17.23;;;;;;;-3.30;62.78;100596.41;6177226;23;20026;-67
2022/12/13 01:43:56;;;;;;;37.50;18.25;;;;;;;-3.24;62.63;100606.56;6177164;23;20041;-68
2022/12/13 01:46:23;;;;;;;35.00;17.38;;;;;;;-3.03;61.90;100598.56;6178406;23;20030;-68
2022/12/13 01:49:13;;;;;;;38.03;17.95;;;;;;;-2.94;62.26;100598.97;6177770;23;20032;-68
2022/12/13 01:51:58;;;;;;;36.42;17.98;;;;;;;-3.15;62.58;100594.78;6176500;23;20029;-67
2022/12/13 01:54:31;;;;;;;33.10;15.93;;;;;;;-3.36;62.23;100596.69;6177559;23;20057;-68
2022/12/13 01:57:01;;;;;;;37.80;15.95;;;;;;;-3.15;61.90;100594.78;6178135;23;20005;-67
2022/12/13 01:59:28;;;;;;;34.00;16.60;;;;;;;-3.06;61.61;100591.72;6176533;23;20025;-69
2022/12/13 02:01:55;;;;;;;31.27;16.08;;;;;;;-3.29;62.41;100592.84;6164730;23;20081;-68
2022/12/13 02:04:38;;;;;;;41.08;18.13;;;;;;;-3.19;62.17;100585.38;6178105;23;20025;-67
2022/12/13 02:07:32;;;;;;;30.80;15.57;;;;;;;-3.21;61.37;100587.22;6176595;23;20035;-68
2022/12/13 02:10:05;;;;;;;31.25;14.93;;;;;;;-3.06;61.18;100584.69;6178642;23;20033;-68
2022/12/13 02:12:34;;;;;;;30.73;16.00;;;;;;;-3.17;61.69;100588.75;6177577;23;20081;-67
2022/12/13 02:15:10;;;;;;;33.17;15.93;;;;;;;-3.21;61.57;100587.22;6178030;23;20033;-67
2022/12/13 02:18:09;;;;;;;31.77;15.60;;;;;;;-3.32;62.02;100591.22;6177711;23;20017;-67
2022/12/13 02:20:53;;;;;;;38.40;16.70;;;;;;;-3.09;61.54;100587.47;6176826;23;20069;-70
2022/12/13 02:23:45;;;;;;;33.17;15.70;;;;;;;-3.12;61.27;100589.41;6177178;23;20057;-68
2022/12/13 02:26:18;;;;;;;34.35;16.50;;;;;;;-3.18;61.57;100590.53;6177376;23;20078;-69
2022/12/13 02:28:53;;;;;;;31.00;15.25;;;;;;;-3.17;62.09;100594.88;6178105;23;20025;-68
2022/12/13 02:31:31;;;;;;;34.95;14.95;;;;;;;-3.05;61.43;100593.41;6175528;23;20096;-70
2022/12/13 02:34:08;;;;;;;31.40;15.43;;;;;;;-3.25;61.65;100590.91;6176646;23;20032;-68
2022/12/13 02:36:54;;;;;;;36.15;16.85;;;;;;;-3.18;61.89;100589.69;6175640;23;20156;-72
2022/12/13 02:39:27;;;;;;;31.75;17.17;;;;;;;-3.18;62.03;100582.66;6176592;23;20073;-68
2022/12/13 02:42:07;;;;;;;34.90;16.10;;;;;;;-3.09;61.21;100586.63;6178571;23;20078;-67
2022/12/13 02:45:06;;;;;;;35.85;16.30;;;;;;;-2.94;61.12;100583.22;6174249;23;20033;-70
2022/12/13 02:47:36;;;;;;;32.13;15.65;;;;;;;-2.85;61.07;100581.94;6178525;23;20025;-68
2022/12/13 02:50:06;;;;;;;34.47;15.50;;;;;;;-2.94;61.34;100587.63;6177215;23;20036;-68
2022/12/13 02:52:33;;;;;;;33.65;16.45;;;;;;;-3.08;62.12;100589.16;6176138;23;20037;-68
2022/12/13 02:55:06;;;;;;;36.95;16.85;;;;;;;-3.09;62.52;100581.38;6177291;23;20077;-68
2022/12/13 02:57:38;;;;;;;34.40;16.95;;;;;;;-2.93;62.21;100584.06;6177537;23;20041;-68
2022/12/13 03:00:40;;;;;;;37.10;17.48;;;;;;;-3.15;62.50;100587.75;6183516;23;20023;-68
2022/12/13 03:03:13;;;;;;;33.15;16.45;;;;;;;-2.97;62.24;100585.16;6136158;23;20073;-67
2022/12/13 03:08:54;;;;;;;35.53;16.77;;;;;;;-3.07;62.53;100574.25;6207326;23;20016;-67
2022/12/13 03:11:24;;;;;;;38.17;17.55;;;;;;;-3.05;62.85;100570.63;6207507;23;20075;-68
2022/12/13 03:13:58;;;;;;;32.78;16.17;;;;;;;-3.18;63.54;100572.16;6207247;23;20033;-68
2022/12/13 03:16:40;;;;;;;32.40;16.88;;;;;;;-3.07;63.00;100579.50;6206892;23;20025;-68
2022/12/13 03:19:09;;;;;;;35.88;17.58;;;;;;;-3.13;63.05;100574.59;6207350;23;20054;-69
2022/12/13 03:21:45;;;;;;;34.42;16.33;;;;;;;-3.17;63.08;100575.63;6206950;23;20081;-68
2022/12/13 03:24:18;;;;;;;36.38;16.40;;;;;;;-3.07;62.90;100574.25;6206640;23;20013;-66
2022/12/13 03:26:47;;;;;;;34.90;17.02;;;;;;;-3.25;63.35;100572.56;6207417;23;20037;-67
2022/12/13 03:29:13;;;;;;;35.67;17.08;;;;;;;-3.14;63.52;100567.63;6209036;23;20021;-71
2022/12/13 03:31:51;;;;;;;31.13;15.32;;;;;;;-3.18;62.84;100571.31;6208485;23;20017;-69
2022/12/13 03:34:17;;;;;;;30.88;14.95;;;;;;;-3.12;62.79;100566.63;6208073;23;20077;-69
2022/12/13 03:36:48;;;;;;;28.27;12.27;;;;;;;-2.94;62.60;100562.22;6207051;23;20013;-67
2022/12/13 03:39:15;;;;;;;34.35;17.38;;;;;;;-3.20;63.12;100560.06;6183633;23;20043;-67
2022/12/13 03:41:41;;;;;;;37.10;16.02;;;;;;;-3.21;63.51;100560.97;6177500;23;20060;-68
2022/12/13 03:44:08;;;;;;;33.78;16.33;;;;;;;-3.09;62.81;100561.22;6176745;23;20100;-68
2022/12/13 03:46:35;;;;;;;35.80;17.30;;;;;;;-3.02;62.63;100561.78;6176682;23;20009;-69
2022/12/13 03:49:02;;;;;;;33.40;16.33;;;;;;;-2.99;62.68;100553.75;6178619;23;20032;-68
2022/12/13 03:51:29;;;;;;;38.88;17.20;;;;;;;-2.93;62.19;100549.94;6176486;23;20026;-67
2022/12/13 03:53:55;;;;;;;35.75;17.38;;;;;;;-2.94;62.33;100549.09;6177243;23;20030;-69
2022/12/13 03:56:22;;;;;;;35.38;16.83;;;;;;;-3.09;62.91;100550.72;6168684;23;20081;-72
2022/12/13 03:58:48;;;;;;;33.70;16.35;;;;;;;-3.10;62.21;100548.16;6179496;23;20077;-70
2022/12/13 04:01:15;;;;;;;30.58;15.48;;;;;;;-2.98;61.61;100551.97;6178013;23;20077;-68
2022/12/13 04:03:44;;;;;;;34.17;15.80;;;;;;;-3.07;62.28;100553.25;6179798;23;20017;-67
2022/12/13 04:06:11;;;;;;;34.17;15.65;;;;;;;-2.98;61.78;100552.81;6178628;23;20077;-69
2022/12/13 04:08:38;;;;;;;33.95;17.58;;;;;;;-3.08;62.22;100547.16;6179348;23;20105;-68
2022/12/13 04:13:52;;;;;;;31.33;15.75;;;;;;;-3.13;62.22;100543.94;6177774;23;20048;-69
2022/12/13 04:16:20;;;;;;;30.35;15.27;;;;;;;-3.05;62.03;100552.28;6178298;23;20022;-68
2022/12/13 04:18:47;;;;;;;32.17;15.85;;;;;;;-2.88;60.93;100550.56;6178986;23;20022;-67
2022/12/13 04:21:13;;;;;;;30.75;15.07;;;;;;;-2.87;61.02;100550.47;6178164;23;20037;-66
2022/12/13 04:23:40;;;;;;;30.50;15.85;;;;;;;-2.97;61.45;100546.63;6179126;23;20078;-67
2022/12/13 04:26:06;;;;;;;29.92;14.90;;;;;;;-2.94;61.49;100548.25;6178007;23;20455;-67
2022/12/13 04:28:33;;;;;;;33.63;15.68;;;;;;;-2.99;61.03;100555.53;6178968;23;20041;-67
2022/12/13 04:30:59;;;;;;;32.22;15.05;;;;;;;-2.91;60.56;100548.09;6179100;23;20032;-69
2022/12/13 04:33:26;;;;;;;31.30;16.23;;;;;;;-3.01;61.02;100549.50;6178968;23;20065;-67
2022/12/13 04:35:52;;;;;;;26.98;13.88;;;;;;;-3.04;61.03;100547.88;6179542;23;20033;-72
2022/12/13 04:38:19;;;;;;;29.48;15.00;;;;;;;-3.05;61.00;100547.03;6179576;23;20033;-72
2022/12/13 04:40:45;;;;;;;30.98;15.23;;;;;;;-3.18;61.64;100542.47;6179574;23;20016;-68
2022/12/13 04:43:12;;;;;;;29.90;15.32;;;;;;;-3.30;61.80;100547.41;6179117;23;20070;-68
2022/12/13 04:45:38;;;;;;;35.80;15.35;;;;;;;-3.23;60.89;100554.97;6179777;23;20072;-69
2022/12/13 04:48:06;;;;;;;33.08;15.70;;;;;;;-3.16;60.78;100553.75;6165042;23;20083;-70
2022/12/13 04:50:32;;;;;;;30.27;15.15;;;;;;;-3.14;61.46;100547.47;6177276;23;20021;-69
2022/12/13 04:52:59;;;;;;;38.05;15.73;;;;;;;-3.20;61.31;100560.06;6178254;23;20045;-69
2022/12/13 04:55:25;;;;;;;33.83;14.65;;;;;;;-3.08;60.63;100556.81;6179158;23;20025;-68
2022/12/13 04:57:52;;;;;;;33.60;15.50;;;;;;;-2.98;60.75;100570.34;6177997;23;20017;-71
2022/12/13 05:00:20;;;;;;;34.35;16.58;;;;;;;-3.11;60.55;100552.56;6178652;23;20020;-68
2022/12/13 05:02:47;;;;;;;29.00;15.00;;;;;;;-2.93;60.80;100563.06;6178513;23;20029;-69
2022/12/13 05:05:13;;;;;;;34.67;16.42;;;;;;;-2.89;60.58;100556.72;6178004;23;20010;-67
2022/12/13 05:07:40;;;;;;;31.23;14.07;;;;;;;-3.20;61.04;100558.31;6177540;23;20078;-67
2022/12/13 05:10:10;;;;;;;30.15;13.75;;;;;;;-3.33;61.06;100558.03;6178085;23;20044;-68
2022/12/13 05:12:36;;;;;;;34.83;15.02;;;;;;;-3.10;60.84;100550.78;6178399;23;20026;-68
2022/12/13 05:15:03;;;;;;;27.63;13.88;;;;;;;-3.16;61.15;100553.75;6177939;23;20024;-68
2022/12/13 05:17:30;;;;;;;31.55;14.57;;;;;;;-3.17;60.77;100552.03;6179116;23;20013;-68
2022/12/13 05:19:57;;;;;;;31.52;15.20;;;;;;;-3.15;60.73;100550.19;6178622;23;20037;-68
2022/12/13 05:22:23;;;;;;;27.48;13.50;;;;;;;-3.25;61.10;100554.19;6178111;23;20033;-72
2022/12/13 05:24:50;;;;;;;27.27;13.38;;;;;;;-3.04;60.25;100553.13;6179897;23;20022;-69
2022/12/13 05:27:16;;;;;;;31.40;14.23;;;;;;;-2.95;59.99;100557.91;6179379;23;20048;-68
2022/12/13 05:29:55;;;;;;;25.73;12.88;;;;;;;-3.16;60.34;100549.34;6178882;23;20022;-71
2022/12/13 05:32:37;;;;;;;29.75;13.63;;;;;;;-2.92;60.20;100547.25;6176449;23;20026;-70
2022/12/13 05:35:16;;;;;;;30.73;14.75;;;;;;;-2.91;59.76;100546.31;6178570;23;20010;-67
2022/12/13 05:37:52;;;;;;;27.50;14.35;;;;;;;-3.02;59.71;100551.28;6177415;23;20026;-67
2022/12/13 05:40:21;;;;;;;28.55;13.95;;;;;;;-3.02;60.27;100553.06;6176092;23;20021;-67
2022/12/13 05:42:47;;;;;;;31.75;15.93;;;;;;;-2.93;60.28;100548.16;6179250;23;20014;-67
2022/12/13 05:45:15;;;;;;;32.00;15.77;;;;;;;-2.98;59.91;100547.56;6178513;23;20066;-68
2022/12/13 05:47:43;;;;;;;36.47;15.65;;;;;;;-3.06;60.41;100544.50;6178223;23;20045;-67
2022/12/13 05:50:10;;;;;;;28.98;14.02;;;;;;;-2.87;59.81;100542.59;6177740;23;20013;-69
2022/12/13 05:52:37;;;;;;;28.80;14.40;;;;;;;-3.03;60.48;100544.34;6179385;23;20037;-68
2022/12/13 05:55:04;;;;;;;36.22;14.90;;;;;;;-2.97;60.24;100546.63;6177927;23;20069;-69
2022/12/13 05:57:30;;;;;;;29.35;14.65;;;;;;;-3.01;59.66;100542.47;6178135;23;20005;-70
2022/12/13 05:59:57;;;;;;;34.00;15.05;;;;;;;-3.11;60.57;100543.84;6177047;23;20041;-69
2022/12/13 06:02:24;;;;;;;29.85;14.55;;;;;;;-2.91;60.07;100541.06;6177753;23;20029;-68
2022/12/13 06:04:50;;;;;;;38.20;15.55;;;;;;;-3.13;60.99;100548.34;6178451;23;20009;-69
2022/12/13 06:07:17;;;;;;;30.77;15.23;;;;;;;-3.12;60.52;100544.78;6178288;23;20025;-68
2022/12/13 06:09:44;;;;;;;31.35;16.38;;;;;;;-3.05;60.42;100548.81;6178084;23;20029;-68
2022/12/13 06:12:10;;;;;;;31.40;15.48;;;;;;;-3.09;60.18;100550.72;6178294;23;20114;-67
2022/12/13 06:14:57;;;;;;;33.97;15.85;;;;;;;-2.97;60.14;100554.50;6177799;23;20021;-70
2022/12/13 06:17:43;;;;;;;32.17;16.10;;;;;;;-2.82;59.47;100552.91;6178276;23;20030;-67
2022/12/13 06:20:10;;;;;;;30.08;14.80;;;;;;;-2.95;59.93;100562.31;6178136;23;20021;-69
2022/12/13 06:22:51;;;;;;;29.23;14.75;;;;;;;-3.41;61.08;100565.44;6177995;23;21120;-68
2022/12/13 06:25:18;;;;;;;31.58;16.10;;;;;;;-3.44;61.49;100562.97;6177909;23;20034;-68
2022/12/13 06:27:58;;;;;;;31.02;15.15;;;;;;;-3.25;61.30;100562.06;6176818;23;20009;-68
2022/12/13 06:30:27;;;;;;;32.67;15.95;;;;;;;-3.06;60.57;100562.84;6177705;23;20031;-67
2022/12/13 06:32:54;;;;;;;31.00;15.40;;;;;;;-3.15;60.28;100561.53;6178682;23;20008;-70
2022/12/13 06:35:20;;;;;;;34.33;15.80;;;;;;;-3.13;60.29;100567.56;6178179;23;20033;-71
2022/12/13 06:37:56;;;;;;;38.17;16.10;;;;;;;-3.11;60.78;100577.97;6178783;23;20073;-73
2022/12/13 06:40:31;;;;;;;33.83;16.35;;;;;;;-2.97;60.50;100569.41;6165427;23;20021;-72
2022/12/13 06:42:58;;;;;;;35.60;17.60;;;;;;;-2.94;60.42;100574.50;6177182;23;20025;-72
2022/12/13 06:45:25;;;;;;;35.22;16.70;;;;;;;-3.03;60.86;100580.19;6177370;23;20013;-71
2022/12/13 06:47:52;;;;;;;34.85;17.63;;;;;;;-3.10;61.30;100575.28;6153497;23;20032;-74
2022/12/13 06:50:18;;;;;;;39.20;18.30;;;;;;;-3.28;61.87;100582.25;6178495;23;20014;-73
2022/12/13 06:52:46;;;;;;;38.72;18.13;;;;;;;-3.41;62.54;100585.56;6172269;23;20029;-71
2022/12/13 06:55:13;;;;;;;38.75;19.55;;;;;;;-3.21;62.45;100595.94;6176701;23;20021;-71
2022/12/13 06:57:49;;;;;;;40.97;19.52;;;;;;;-3.31;62.36;100590.31;6162842;23;20109;-71
2022/12/13 07:00:16;;;;;;;40.05;18.45;;;;;;;-3.23;62.07;100591.72;6176831;23;20026;-71
2022/12/13 07:02:55;;;;;;;38.85;18.75;;;;;;;-3.42;62.58;100592.56;6173920;23;20006;-73
2022/12/13 07:05:23;;;;;;;40.75;18.73;;;;;;;-3.49;62.96;100590.34;6178943;23;20064;-72
2022/12/13 07:07:50;;;;;;;41.35;19.35;;;;;;;-3.12;62.43;100592.03;6179367;23;20002;-71
2022/12/13 07:10:17;;;;;;;41.60;19.42;;;;;;;-3.13;62.12;100595.59;6178983;23;20016;-70
2022/12/13 07:12:48;;;;;;;46.08;19.48;;;;;;;-3.06;62.13;100596.97;6171785;23;20022;-70
2022/12/13 07:15:15;;;;;;;42.50;20.45;;;;;;;-3.15;62.39;100600.88;6179794;23;20021;-72
2022/12/13 07:17:41;;;;;;;40.03;18.98;;;;;;;-3.20;62.47;100600.28;6179366;23;20010;-72
2022/12/13 07:20:09;;;;;;;48.00;20.00;;;;;;;-3.31;62.98;100602.56;6178815;23;20021;-71
2022/12/13 07:22:39;;;;;;;42.75;20.33;;;;;;;-3.29;62.81;100603.34;6176497;23;20029;-73
2022/12/13 07:25:15;;;;;;;41.05;19.90;;;;;;;-3.02;62.30;100603.75;6168241;23;20009;-71
2022/12/13 07:28:03;;;;;;;46.47;20.08;;;;;;;-3.51;63.17;100608.78;6176783;23;20012;-71
2022/12/13 07:30:33;;;;;;;42.78;20.25;;;;;;;-3.05;62.64;100604.75;6179302;23;20025;-70
2022/12/13 07:33:07;;;;;;;45.13;21.33;;;;;;;-3.07;62.61;100608.38;6180138;23;20033;-73
2022/12/13 07:35:34;;;;;;;45.00;19.90;;;;;;;-2.86;61.82;100604.72;6180417;23;20017;-73
2022/12/13 07:38:04;;;;;;;39.42;19.10;;;;;;;-3.17;63.08;100609.75;6179113;23;20013;-73
2022/12/13 07:40:33;;;;;;;39.13;19.10;;;;;;;-3.38;63.22;100612.50;6179641;23;20048;-71
2022/12/13 07:42:59;;;;;;;43.70;20.55;;;;;;;-3.16;62.76;100614.94;6179618;23;20013;-71
2022/12/13 07:45:26;;;;;;;43.10;20.42;;;;;;;-3.11;62.60;100617.31;6179823;23;20077;-72
2022/12/13 07:47:53;;;;;;;42.58;20.35;;;;;;;-3.11;62.16;100614.69;6179367;23;24738;-71
2022/12/13 07:50:20;;;;;;;43.83;20.80;;;;;;;-2.94;62.00;100622.59;6180376;23;20028;-71
2022/12/13 07:52:51;;;;;;;39.22;20.35;;;;;;;-2.85;61.51;100622.16;6179844;23;20029;-70
2022/12/13 07:55:18;;;;;;;51.15;22.25;;;;;;;-3.01;62.09;100626.44;6180343;23;20032;-71
2022/12/13 07:58:09;;;;;;;40.70;20.37;;;;;;;-3.03;62.00;100630.06;6180522;23;20009;-72
2022/12/13 08:00:41;;;;;;;43.90;20.33;;;;;;;-3.15;62.18;100624.50;6180456;23;20011;-73
2022/12/13 08:03:12;;;;;;;40.83;19.98;;;;;;;-3.04;62.63;100618.72;6179878;23;20049;-73
2022/12/13 08:06:11;;;;;;;42.83;20.33;;;;;;;-3.01;62.78;100622.97;6179614;23;20073;-71
2022/12/13 08:08:38;;;;;;;45.30;20.30;;;;;;;-2.92;61.67;100620.75;6181000;23;20037;-73
2022/12/13 08:11:08;;;;;;;40.72;19.58;;;;;;;-3.03;62.31;100630.94;6179270;23;20017;-72
2022/12/13 08:13:35;;;;;;;33.97;18.90;;;;;;;-3.02;62.27;100635.25;6178856;23;20062;-74
2022/12/13 08:16:05;;;;;;;44.88;20.98;;;;;;;-3.04;61.83;100631.84;6179723;23;20025;-72
2022/12/13 08:18:52;;;;;;;37.75;19.85;;;;;;;-2.86;61.82;100630.09;6179406;23;20013;-73
2022/12/13 08:21:31;;;;;;;41.55;19.23;;;;;;;-2.92;61.74;100638.28;6179706;23;20016;-72
2022/12/13 08:24:19;;;;;;;40.85;20.25;;;;;;;-2.82;61.55;100637.75;6179382;23;20009;-71
2022/12/13 08:26:46;;;;;;;38.65;19.40;;;;;;;-2.62;61.00;100633.25;6178812;23;20012;-71
2022/12/13 08:29:12;;;;;;;43.67;20.35;;;;;;;-2.87;61.54;100638.91;6178938;23;20029;-71
2022/12/13 08:32:00;;;;;;;42.75;20.65;;;;;;;-2.92;61.68;100636.50;6178554;23;20049;-71
2022/12/13 08:34:27;;;;;;;40.47;19.33;;;;;;;-2.94;61.47;100633.09;6178179;23;20024;-71
2022/12/13 08:36:54;;;;;;;35.78;18.73;;;;;;;-2.87;61.54;100639.75;6172347;23;20020;-72
2022/12/13 08:39:30;;;;;;;44.88;19.13;;;;;;;-2.78;60.87;100642.84;6178612;23;20009;-72
2022/12/13 08:42:04;;;;;;;41.08;18.73;;;;;;;-2.81;61.26;100649.94;6176457;23;20009;-71
2022/12/13 08:44:43;;;;;;;36.35;18.95;;;;;;;-2.76;61.05;100651.47;6177174;23;20041;-71
2022/12/13 08:47:10;;;;;;;36.38;18.77;;;;;;;-2.81;61.42;100652.56;6173231;23;20018;-72
2022/12/13 08:49:37;;;;;;;45.97;21.30;;;;;;;-2.69;60.93;100658.13;6153442;23;20057;-74
2022/12/13 08:52:03;;;;;;;43.40;19.38;;;;;;;-3.07;61.84;100648.59;6179294;23;20068;-71
2022/12/13 08:54:32;;;;;;;34.78;16.98;;;;;;;-2.90;60.89;100653.00;6178828;23;20034;-71
2022/12/13 08:56:59;;;;;;;38.78;17.40;;;;;;;-2.87;61.24;100658.13;6178539;23;20054;-72
2022/12/13 08:59:26;;;;;;;34.70;17.10;;;;;;;-2.77;60.77;100657.66;6178530;23;20073;-72
2022/12/13 09:01:52;;;;;;;37.60;18.35;;;;;;;-2.70;60.19;100661.69;6177666;23;20045;-73
2022/12/13 09:04:24;;;;;;;;;;;;;;;-2.40;59.68;100661.91;6178636;23;20005;-71
2022/12/13 09:06:58;;;;;;;38.20;16.90;;;;;;;-2.59;59.56;100657.59;6178124;23;19916;-72
2022/12/13 09:18:08;;;;;;;32.78;16.95;;;;;;;-2.57;59.28;100645.22;6135816;23;20010;-73
2022/12/13 09:34:25;;;;;;;34.03;16.23;;;;;;;-2.56;59.13;100664.47;6155543;23;20032;-73
2022/12/13 09:42:28;;;;;;;37.88;18.10;;;;;;;-2.65;59.19;100662.28;6165012;23;20009;-73
2022/12/13 09:59:33;;;;;;;34.45;15.68;;;;;;;-2.17;57.89;100655.47;6140075;23;20081;-72
2022/12/13 10:02:28;;;;;;;27.25;12.00;;;;;;;-2.15;57.88;100656.25;6166658;23;20025;-74
2022/12/13 10:05:14;;;;;;;30.55;15.15;;;;;;;-2.19;58.40;100657.34;6155659;23;20005;-74
2022/12/13 10:07:52;;;;;;;38.95;14.85;;;;;;;-2.16;57.68;100652.75;6151362;23;20009;-72
2022/12/13 10:13:27;;;;;;;32.75;13.98;;;;;;;-2.08;57.44;100649.72;6159583;23;20014;-75
2022/12/13 10:15:59;;;;;;;33.08;16.10;;;;;;;-2.35;58.05;100659.91;6178099;23;20025;-75
2022/12/13 10:18:40;;;;;;;34.40;15.90;;;;;;;-2.27;58.18;100660.34;6178612;23;20029;-75
2022/12/13 10:21:18;;;;;;;36.20;15.77;;;;;;;-2.54;58.15;100653.91;6175808;23;20005;-74
2022/12/13 10:29:55;;;;;;;33.22;13.75;;;;;;;-2.91;58.94;100647.84;6142482;23;20002;-72
2022/12/13 10:35:05;;;;;;;;;;;;;;;-2.73;58.27;100640.84;6103485;23;20037;-65
2022/12/13 10:37:32;;;;;;;27.40;13.23;;;;;;;-2.70;58.22;100641.53;6119569;23;19902;-73
2022/12/13 10:39:58;;;;;;;32.47;14.57;;;;;;;-2.73;58.29;100643.47;6120311;23;20035;-73
2022/12/13 10:42:25;;;;;;;30.23;13.65;;;;;;;-2.61;57.72;100640.22;6120401;23;20025;-72
2022/12/13 10:45:14;;;;;;;27.40;13.60;;;;;;;-2.37;57.58;100638.97;6138019;23;20029;-73
2022/12/13 10:47:49;;;;;;;25.50;12.75;;;;;;;-2.51;57.32;100636.22;6177228;23;20069;-75
2022/12/13 10:50:23;;;;;;;25.35;12.23;;;;;;;-2.33;57.69;100637.03;6175845;23;20013;-75
2022/12/13 10:52:51;;;;;;;22.05;12.07;;;;;;;-2.36;57.42;100634.56;6177862;23;20017;-74
2022/12/13 10:55:29;;;;;;;21.15;12.00;;;;;;;-2.59;57.70;100627.84;6177062;23;20054;-73
2022/12/13 10:58:00;;;;;;;23.77;12.25;;;;;;;-2.65;57.91;100628.16;6176543;23;20072;-74
2022/12/13 11:00:34;;;;;;;26.90;11.73;;;;;;;-2.45;57.78;100638.50;6177228;23;20057;-74
2022/12/13 11:03:01;;;;;;;22.65;12.43;;;;;;;-2.64;58.14;100633.34;6148564;23;20253;-72
2022/12/13 11:08:20;;;;;;;28.98;14.63;;;;;;;-2.27;57.66;100628.81;6149145;23;20009;-75
2022/12/13 11:11:02;;;;;;;28.08;13.88;;;;;;;-2.20;57.30;100630.22;6147296;23;20046;-75
2022/12/13 11:13:44;;;;;;;27.98;14.35;;;;;;;-2.18;57.30;100625.69;6147853;23;20029;-74
2022/12/13 11:16:29;;;;;;;29.40;11.90;;;;;;;-2.33;57.85;100622.09;6145210;23;20049;-74
2022/12/13 11:19:02;;;;;;;29.90;13.57;;;;;;;-2.26;56.80;100617.38;6175652;23;20013;-73
2022/12/13 11:21:33;;;;;;;32.22;13.00;;;;;;;-2.33;56.87;100623.91;6173998;23;20015;-74
2022/12/13 11:24:05;;;;;;;18.75;9.07;;;;;;;-2.40;57.00;100626.00;6175804;23;20089;-72
2022/12/13 11:26:36;;;;;;;24.65;12.20;;;;;;;-2.27;56.84;100627.97;6160696;23;20058;-73
2022/12/13 11:29:06;;;;;;;23.65;11.88;;;;;;;-2.29;57.27;100620.16;6146688;23;20038;-72
2022/12/13 11:31:43;;;;;;;29.10;12.70;;;;;;;-2.14;56.31;100615.88;6147578;23;20065;-72
2022/12/13 11:34:21;;;;;;;29.42;12.93;;;;;;;-2.36;56.46;100619.63;6200409;23;20025;-71
2022/12/13 11:36:56;;;;;;;37.13;12.38;;;;;;;-2.19;56.38;100617.91;6206303;23;20013;-74
2022/12/13 11:40:11;;;;;;;20.80;10.85;;;;;;;-2.47;57.17;100615.88;6207939;23;20029;-74
2022/12/13 11:42:51;;;;;;;28.60;13.00;;;;;;;-2.39;56.95;100611.91;6058305;23;20007;-72
2022/12/13 11:45:26;;;;;;;23.30;11.55;;;;;;;-2.62;57.47;100618.34;6058515;23;20023;-73
2022/12/13 11:48:13;;;;;;;23.45;11.65;;;;;;;-2.59;57.15;100623.44;6045528;23;20039;-73
2022/12/13 11:50:49;;;;;;;24.58;12.48;;;;;;;-2.52;57.11;100615.25;6061374;23;20018;-72
2022/12/13 11:53:42;;;;;;;24.45;12.88;;;;;;;-2.11;56.21;100623.59;6059520;23;20015;-73
2022/12/13 11:56:44;;;;;;;37.78;12.55;;;;;;;-2.15;56.79;100617.66;6061326;23;20015;-72
2022/12/13 11:59:36;;;;;;;35.08;12.02;;;;;;;-2.18;57.20;100611.72;6031018;23;20070;-70
2022/12/13 12:02:21;;;;;;;30.52;12.63;;;;;;;-2.58;57.37;100617.28;6059809;23;20055;-70
2022/12/13 12:04:53;;;;;;;24.23;12.05;;;;;;;-2.35;57.30;100610.81;6061011;23;20015;-74
2022/12/13 12:07:31;;;;;;;25.02;13.13;;;;;;;-2.08;56.31;100617.34;6060133;23;20008;-73
2022/12/13 12:10:12;;;;;;;34.60;12.70;;;;;;;-2.67;57.95;100617.75;6058830;23;20011;-71
2022/12/13 12:12:43;;;;;;;24.70;12.40;;;;;;;-2.40;56.92;100618.09;6059707;23;20031;-72
2022/12/13 12:15:16;;;;;;;27.15;12.00;;;;;;;-2.15;57.07;100622.91;6055989;23;20061;-71
2022/12/13 12:17:43;;;;;;;24.63;12.50;;;;;;;-2.19;57.91;100616.13;6202351;23;20020;-71
2022/12/13 12:20:15;;;;;;;32.00;11.65;;;;;;;-2.18;57.42;100623.06;6208131;23;20009;-71
2022/12/13 12:23:07;;;;;;;26.63;12.85;;;;;;;-2.25;56.86;100626.13;6170998;23;20086;-74
2022/12/13 12:25:50;;;;;;;27.55;12.70;;;;;;;-2.68;57.92;100617.84;6208714;23;20021;-71
2022/12/13 12:28:40;;;;;;;25.30;13.52;;;;;;;-2.53;57.54;100622.28;6182679;23;20050;-70
2022/12/13 12:31:25;;;;;;;29.25;12.55;;;;;;;-2.34;57.57;100624.81;6206090;23;20009;-71
2022/12/13 12:34:05;;;;;;;27.15;12.25;;;;;;;-2.19;56.43;100625.81;6205957;23;20064;-73